sensor_id;sensor_type;location;lat;lon;timestamp;temperature;humidity
12957;DHT22;6543;48.836;10.092;2023-08-21T00:01:40;22.10;99.90
12957;DHT22;6543;48.836;10.092;2023-08-21T00:04:07;22.10;99.90
12957;DHT22;6543;48.836;10.092;2023-08-21T00:06:33;22.10;99.90
12957;DHT22;6543;48.836;10.092;2023-08-21T00:09:01;22.00;99.90
12957;DHT22;6543;48.836;10.092;2023-08-21T00:11:28;22.00;99.90
12957;DHT22;6543;48.836;10.092;2023-08-21T00:13:56;21.90;99.90
12957;DHT22;6543;48.836;10.092;2023-08-21T00:16:23;21.90;99.90
12957;DHT22;6543;48.836;10.092;2023-08-21T00:18:49;21.80;99.90
12957;DHT22;6543;48.836;10.092;2023-08-21T00:21:16;21.80;99.90
12957;DHT22;6543;48.836;10.092;2023-08-21T00:23:43;21.70;99.90
12957;DHT22;6543;48.836;10.092;2023-08-21T00:26:10;21.70;99.90
12957;DHT22;6543;48.836;10.092;2023-08-21T00:28:37;21.70;99.90
12957;DHT22;6543;48.836;10.092;2023-08-21T00:31:06;21.70;99.90
12957;DHT22;6543;48.836;10.092;2023-08-21T00:33:33;21.70;99.90
12957;DHT22;6543;48.836;10.092;2023-08-21T00:36:00;21.60;99.90
12957;DHT22;6543;48.836;10.092;2023-08-21T00:38:27;21.50;99.90
12957;DHT22;6543;48.836;10.092;2023-08-21T00:40:54;21.50;99.90
12957;DHT22;6543;48.836;10.092;2023-08-21T00:43:21;21.50;99.90
12957;DHT22;6543;48.836;10.092;2023-08-21T00:45:48;21.50;99.90
12957;DHT22;6543;48.836;10.092;2023-08-21T00:48:17;21.50;99.90
12957;DHT22;6543;48.836;10.092;2023-08-21T00:50:45;21.40;99.90
12957;DHT22;6543;48.836;10.092;2023-08-21T00:53:12;21.30;99.90
12957;DHT22;6543;48.836;10.092;2023-08-21T00:55:40;21.30;99.90
12957;DHT22;6543;48.836;10.092;2023-08-21T00:58:10;21.40;99.90
12957;DHT22;6543;48.836;10.092;2023-08-21T01:00:38;21.40;99.90
12957;DHT22;6543;48.836;10.092;2023-08-21T01:03:05;21.40;99.90
12957;DHT22;6543;48.836;10.092;2023-08-21T01:05:34;21.40;99.90
12957;DHT22;6543;48.836;10.092;2023-08-21T01:08:03;21.40;99.90
12957;DHT22;6543;48.836;10.092;2023-08-21T01:10:39;21.40;99.90
12957;DHT22;6543;48.836;10.092;2023-08-21T01:13:12;21.50;99.90
12957;DHT22;6543;48.836;10.092;2023-08-21T01:15:43;21.60;99.90
12957;DHT22;6543;48.836;10.092;2023-08-21T01:18:11;21.60;99.90
12957;DHT22;6543;48.836;10.092;2023-08-21T01:20:40;21.60;99.90
12957;DHT22;6543;48.836;10.092;2023-08-21T01:23:07;21.60;99.90
12957;DHT22;6543;48.836;10.092;2023-08-21T01:25:35;21.50;99.90
12957;DHT22;6543;48.836;10.092;2023-08-21T01:28:03;21.50;99.90
12957;DHT22;6543;48.836;10.092;2023-08-21T01:30:32;21.60;99.90
12957;DHT22;6543;48.836;10.092;2023-08-21T01:33:02;21.60;99.90
12957;DHT22;6543;48.836;10.092;2023-08-21T01:35:31;21.60;99.90
12957;DHT22;6543;48.836;10.092;2023-08-21T01:38:00;21.60;99.90
12957;DHT22;6543;48.836;10.092;2023-08-21T01:40:27;21.60;99.90
12957;DHT22;6543;48.836;10.092;2023-08-21T01:42:56;21.60;99.90
12957;DHT22;6543;48.836;10.092;2023-08-21T01:45:22;21.50;99.90
12957;DHT22;6543;48.836;10.092;2023-08-21T01:47:49;21.50;99.90
12957;DHT22;6543;48.836;10.092;2023-08-21T01:50:16;21.60;99.90
12957;DHT22;6543;48.836;10.092;2023-08-21T01:52:43;21.50;99.90
12957;DHT22;6543;48.836;10.092;2023-08-21T01:55:10;21.50;99.90
12957;DHT22;6543;48.836;10.092;2023-08-21T01:57:37;21.40;99.90
12957;DHT22;6543;48.836;10.092;2023-08-21T02:00:07;21.40;99.90
12957;DHT22;6543;48.836;10.092;2023-08-21T02:02:34;21.30;99.90
12957;DHT22;6543;48.836;10.092;2023-08-21T02:05:01;21.30;99.90
12957;DHT22;6543;48.836;10.092;2023-08-21T02:07:28;21.20;99.90
12957;DHT22;6543;48.836;10.092;2023-08-21T02:09:55;21.10;99.90
12957;DHT22;6543;48.836;10.092;2023-08-21T02:12:22;21.00;99.90
12957;DHT22;6543;48.836;10.092;2023-08-21T02:14:49;21.00;99.90
12957;DHT22;6543;48.836;10.092;2023-08-21T02:17:17;21.00;99.90
12957;DHT22;6543;48.836;10.092;2023-08-21T02:19:44;21.00;99.90
12957;DHT22;6543;48.836;10.092;2023-08-21T02:22:11;21.00;99.90
12957;DHT22;6543;48.836;10.092;2023-08-21T02:24:38;21.00;99.90
12957;DHT22;6543;48.836;10.092;2023-08-21T02:27:05;21.00;99.90
12957;DHT22;6543;48.836;10.092;2023-08-21T02:29:31;21.10;99.90
12957;DHT22;6543;48.836;10.092;2023-08-21T02:31:58;21.10;99.90
12957;DHT22;6543;48.836;10.092;2023-08-21T02:34:26;21.10;99.90
12957;DHT22;6543;48.836;10.092;2023-08-21T02:36:53;21.10;99.90
12957;DHT22;6543;48.836;10.092;2023-08-21T02:39:20;21.10;99.90
12957;DHT22;6543;48.836;10.092;2023-08-21T02:41:47;21.00;99.90
12957;DHT22;6543;48.836;10.092;2023-08-21T02:44:14;20.90;99.90
12957;DHT22;6543;48.836;10.092;2023-08-21T02:46:41;20.90;99.90
12957;DHT22;6543;48.836;10.092;2023-08-21T02:49:07;20.80;99.90
12957;DHT22;6543;48.836;10.092;2023-08-21T02:51:35;20.70;99.90
12957;DHT22;6543;48.836;10.092;2023-08-21T02:54:02;20.70;99.90
12957;DHT22;6543;48.836;10.092;2023-08-21T02:56:29;20.70;99.90
12957;DHT22;6543;48.836;10.092;2023-08-21T02:58:56;20.70;99.90
12957;DHT22;6543;48.836;10.092;2023-08-21T03:01:23;20.60;99.90
12957;DHT22;6543;48.836;10.092;2023-08-21T03:03:50;20.60;99.90
12957;DHT22;6543;48.836;10.092;2023-08-21T03:06:17;20.60;99.90
12957;DHT22;6543;48.836;10.092;2023-08-21T03:08:45;20.60;99.90
12957;DHT22;6543;48.836;10.092;2023-08-21T03:11:12;20.60;99.90
12957;DHT22;6543;48.836;10.092;2023-08-21T03:13:39;20.60;99.90
12957;DHT22;6543;48.836;10.092;2023-08-21T03:16:06;20.60;99.90
12957;DHT22;6543;48.836;10.092;2023-08-21T03:21:19;20.60;99.90
12957;DHT22;6543;48.836;10.092;2023-08-21T03:23:50;20.60;99.90
12957;DHT22;6543;48.836;10.092;2023-08-21T03:26:17;20.50;99.90
12957;DHT22;6543;48.836;10.092;2023-08-21T03:28:44;20.50;99.90
12957;DHT22;6543;48.836;10.092;2023-08-21T03:31:10;20.50;99.90
12957;DHT22;6543;48.836;10.092;2023-08-21T03:33:37;20.50;99.90
12957;DHT22;6543;48.836;10.092;2023-08-21T03:36:04;20.50;99.90
12957;DHT22;6543;48.836;10.092;2023-08-21T03:38:31;20.50;99.90
12957;DHT22;6543;48.836;10.092;2023-08-21T03:41:00;20.50;99.90
12957;DHT22;6543;48.836;10.092;2023-08-21T03:43:26;20.50;99.90
12957;DHT22;6543;48.836;10.092;2023-08-21T03:45:53;20.40;99.90
12957;DHT22;6543;48.836;10.092;2023-08-21T03:48:20;20.40;99.90
12957;DHT22;6543;48.836;10.092;2023-08-21T03:50:48;20.30;99.90
12957;DHT22;6543;48.836;10.092;2023-08-21T03:53:15;20.30;99.90
12957;DHT22;6543;48.836;10.092;2023-08-21T03:55:42;20.30;99.90
12957;DHT22;6543;48.836;10.092;2023-08-21T03:58:10;20.30;99.90
12957;DHT22;6543;48.836;10.092;2023-08-21T04:00:37;20.20;99.90
12957;DHT22;6543;48.836;10.092;2023-08-21T04:03:04;20.20;99.90
12957;DHT22;6543;48.836;10.092;2023-08-21T04:05:31;20.30;99.90
12957;DHT22;6543;48.836;10.092;2023-08-21T04:07:58;20.30;99.90
12957;DHT22;6543;48.836;10.092;2023-08-21T04:10:24;20.30;99.90
12957;DHT22;6543;48.836;10.092;2023-08-21T04:12:51;20.30;99.90
12957;DHT22;6543;48.836;10.092;2023-08-21T04:15:19;20.40;99.90
12957;DHT22;6543;48.836;10.092;2023-08-21T04:17:46;20.30;99.90
12957;DHT22;6543;48.836;10.092;2023-08-21T04:20:13;20.30;99.90
12957;DHT22;6543;48.836;10.092;2023-08-21T04:22:40;20.20;99.90
12957;DHT22;6543;48.836;10.092;2023-08-21T04:25:07;20.20;99.90
12957;DHT22;6543;48.836;10.092;2023-08-21T04:27:35;20.10;99.90
12957;DHT22;6543;48.836;10.092;2023-08-21T04:30:02;20.10;99.90
12957;DHT22;6543;48.836;10.092;2023-08-21T04:32:30;20.10;99.90
12957;DHT22;6543;48.836;10.092;2023-08-21T04:34:57;20.10;99.90
12957;DHT22;6543;48.836;10.092;2023-08-21T04:37:24;20.00;99.90
12957;DHT22;6543;48.836;10.092;2023-08-21T04:39:51;20.10;99.90
12957;DHT22;6543;48.836;10.092;2023-08-21T04:42:18;20.10;99.90
12957;DHT22;6543;48.836;10.092;2023-08-21T04:44:45;20.10;99.90
12957;DHT22;6543;48.836;10.092;2023-08-21T04:47:23;20.20;99.90
12957;DHT22;6543;48.836;10.092;2023-08-21T04:49:51;20.20;99.90
12957;DHT22;6543;48.836;10.092;2023-08-21T04:52:18;20.20;99.90
12957;DHT22;6543;48.836;10.092;2023-08-21T04:54:45;20.20;99.90
12957;DHT22;6543;48.836;10.092;2023-08-21T04:57:12;20.20;99.90
12957;DHT22;6543;48.836;10.092;2023-08-21T04:59:39;20.20;99.90
12957;DHT22;6543;48.836;10.092;2023-08-21T05:02:06;20.20;99.90
12957;DHT22;6543;48.836;10.092;2023-08-21T05:04:35;20.20;99.90
12957;DHT22;6543;48.836;10.092;2023-08-21T05:07:04;20.30;99.90
12957;DHT22;6543;48.836;10.092;2023-08-21T05:09:31;20.30;99.90
12957;DHT22;6543;48.836;10.092;2023-08-21T05:11:58;20.30;99.90
12957;DHT22;6543;48.836;10.092;2023-08-21T05:14:25;20.40;99.90
12957;DHT22;6543;48.836;10.092;2023-08-21T05:16:52;20.50;99.90
12957;DHT22;6543;48.836;10.092;2023-08-21T05:19:18;20.50;99.90
12957;DHT22;6543;48.836;10.092;2023-08-21T05:21:45;20.60;99.90
12957;DHT22;6543;48.836;10.092;2023-08-21T05:24:14;20.70;99.90
12957;DHT22;6543;48.836;10.092;2023-08-21T05:26:40;20.70;99.90
12957;DHT22;6543;48.836;10.092;2023-08-21T05:29:07;20.80;99.90
12957;DHT22;6543;48.836;10.092;2023-08-21T05:31:34;20.90;99.90
12957;DHT22;6543;48.836;10.092;2023-08-21T05:34:01;20.90;99.90
12957;DHT22;6543;48.836;10.092;2023-08-21T05:36:28;21.00;99.90
12957;DHT22;6543;48.836;10.092;2023-08-21T05:38:56;21.10;99.90
12957;DHT22;6543;48.836;10.092;2023-08-21T05:41:24;21.20;99.90
12957;DHT22;6543;48.836;10.092;2023-08-21T05:43:51;21.30;99.90
12957;DHT22;6543;48.836;10.092;2023-08-21T05:46:18;21.40;99.90
12957;DHT22;6543;48.836;10.092;2023-08-21T05:48:45;21.40;99.90
12957;DHT22;6543;48.836;10.092;2023-08-21T05:51:12;21.50;99.90
12957;DHT22;6543;48.836;10.092;2023-08-21T05:53:39;21.60;99.90
12957;DHT22;6543;48.836;10.092;2023-08-21T05:56:06;21.70;99.90
12957;DHT22;6543;48.836;10.092;2023-08-21T05:58:34;21.80;99.90
12957;DHT22;6543;48.836;10.092;2023-08-21T06:01:01;21.90;99.90
12957;DHT22;6543;48.836;10.092;2023-08-21T06:03:28;22.00;99.90
12957;DHT22;6543;48.836;10.092;2023-08-21T06:05:55;22.20;99.90
12957;DHT22;6543;48.836;10.092;2023-08-21T06:08:21;22.20;99.90
12957;DHT22;6543;48.836;10.092;2023-08-21T06:10:51;22.30;99.90
12957;DHT22;6543;48.836;10.092;2023-08-21T06:13:19;22.40;99.90
12957;DHT22;6543;48.836;10.092;2023-08-21T06:15:47;22.60;99.90
12957;DHT22;6543;48.836;10.092;2023-08-21T06:18:14;22.60;99.90
12957;DHT22;6543;48.836;10.092;2023-08-21T06:20:42;22.80;99.90
12957;DHT22;6543;48.836;10.092;2023-08-21T06:23:09;22.90;99.90
12957;DHT22;6543;48.836;10.092;2023-08-21T06:25:37;22.90;99.90
12957;DHT22;6543;48.836;10.092;2023-08-21T06:28:04;22.80;99.90
12957;DHT22;6543;48.836;10.092;2023-08-21T06:30:31;23.00;99.90
12957;DHT22;6543;48.836;10.092;2023-08-21T06:32:59;23.00;99.90
12957;DHT22;6543;48.836;10.092;2023-08-21T06:35:26;23.10;99.90
12957;DHT22;6543;48.836;10.092;2023-08-21T06:37:53;23.30;99.90
12957;DHT22;6543;48.836;10.092;2023-08-21T06:40:21;23.30;99.90
12957;DHT22;6543;48.836;10.092;2023-08-21T06:42:48;23.40;99.90
12957;DHT22;6543;48.836;10.092;2023-08-21T06:45:16;23.70;99.90
12957;DHT22;6543;48.836;10.092;2023-08-21T06:47:43;23.70;99.90
12957;DHT22;6543;48.836;10.092;2023-08-21T06:50:11;23.80;99.90
12957;DHT22;6543;48.836;10.092;2023-08-21T06:52:38;24.10;99.90
12957;DHT22;6543;48.836;10.092;2023-08-21T06:55:06;24.00;99.90
12957;DHT22;6543;48.836;10.092;2023-08-21T06:57:33;24.00;99.90
12957;DHT22;6543;48.836;10.092;2023-08-21T07:00:00;24.10;99.90
12957;DHT22;6543;48.836;10.092;2023-08-21T07:02:27;24.20;99.90
12957;DHT22;6543;48.836;10.092;2023-08-21T07:04:54;24.40;99.90
12957;DHT22;6543;48.836;10.092;2023-08-21T07:07:22;24.40;99.90
12957;DHT22;6543;48.836;10.092;2023-08-21T07:09:50;24.40;99.90
12957;DHT22;6543;48.836;10.092;2023-08-21T07:12:17;24.60;99.90
12957;DHT22;6543;48.836;10.092;2023-08-21T07:14:44;24.80;99.90
12957;DHT22;6543;48.836;10.092;2023-08-21T07:17:10;24.50;99.90
12957;DHT22;6543;48.836;10.092;2023-08-21T07:19:37;24.70;99.90
12957;DHT22;6543;48.836;10.092;2023-08-21T07:22:04;24.90;99.90
12957;DHT22;6543;48.836;10.092;2023-08-21T07:24:32;25.10;99.90
12957;DHT22;6543;48.836;10.092;2023-08-21T07:26:59;25.30;99.90
12957;DHT22;6543;48.836;10.092;2023-08-21T07:29:26;25.20;99.90
12957;DHT22;6543;48.836;10.092;2023-08-21T07:31:53;25.30;99.90
12957;DHT22;6543;48.836;10.092;2023-08-21T07:34:20;25.20;99.90
12957;DHT22;6543;48.836;10.092;2023-08-21T07:36:46;25.30;99.90
12957;DHT22;6543;48.836;10.092;2023-08-21T07:39:13;25.20;99.90
12957;DHT22;6543;48.836;10.092;2023-08-21T07:41:41;25.50;99.90
12957;DHT22;6543;48.836;10.092;2023-08-21T07:44:08;25.60;99.90
12957;DHT22;6543;48.836;10.092;2023-08-21T07:46:35;25.50;99.90
12957;DHT22;6543;48.836;10.092;2023-08-21T07:49:02;25.80;99.90
12957;DHT22;6543;48.836;10.092;2023-08-21T07:51:29;25.90;99.90
12957;DHT22;6543;48.836;10.092;2023-08-21T07:53:55;26.20;99.90
12957;DHT22;6543;48.836;10.092;2023-08-21T07:56:22;26.20;99.90
12957;DHT22;6543;48.836;10.092;2023-08-21T07:58:50;26.20;99.90
12957;DHT22;6543;48.836;10.092;2023-08-21T08:01:17;26.20;99.90
12957;DHT22;6543;48.836;10.092;2023-08-21T08:03:46;26.10;99.90
12957;DHT22;6543;48.836;10.092;2023-08-21T08:06:13;26.30;99.90
12957;DHT22;6543;48.836;10.092;2023-08-21T08:08:40;26.70;99.90
12957;DHT22;6543;48.836;10.092;2023-08-21T08:11:06;26.60;99.90
12957;DHT22;6543;48.836;10.092;2023-08-21T08:13:33;26.60;99.90
12957;DHT22;6543;48.836;10.092;2023-08-21T08:16:02;26.30;99.90
12957;DHT22;6543;48.836;10.092;2023-08-21T08:18:28;26.30;99.90
12957;DHT22;6543;48.836;10.092;2023-08-21T08:20:55;26.60;99.90
12957;DHT22;6543;48.836;10.092;2023-08-21T08:23:22;26.90;99.90
12957;DHT22;6543;48.836;10.092;2023-08-21T08:25:50;27.00;99.90
12957;DHT22;6543;48.836;10.092;2023-08-21T08:28:17;27.20;99.90
12957;DHT22;6543;48.836;10.092;2023-08-21T08:30:44;27.60;99.90
12957;DHT22;6543;48.836;10.092;2023-08-21T08:33:13;27.80;99.90
12957;DHT22;6543;48.836;10.092;2023-08-21T08:35:39;28.10;99.90
12957;DHT22;6543;48.836;10.092;2023-08-21T08:38:07;28.00;99.90
12957;DHT22;6543;48.836;10.092;2023-08-21T08:40:40;27.80;99.90
12957;DHT22;6543;48.836;10.092;2023-08-21T08:43:10;28.10;99.90
12957;DHT22;6543;48.836;10.092;2023-08-21T08:45:37;28.00;99.90
12957;DHT22;6543;48.836;10.092;2023-08-21T08:48:06;27.90;99.90
12957;DHT22;6543;48.836;10.092;2023-08-21T08:50:35;27.80;99.90
12957;DHT22;6543;48.836;10.092;2023-08-21T08:53:05;28.00;99.90
12957;DHT22;6543;48.836;10.092;2023-08-21T08:55:33;28.40;99.90
12957;DHT22;6543;48.836;10.092;2023-08-21T08:58:00;28.20;99.90
12957;DHT22;6543;48.836;10.092;2023-08-21T09:00:27;28.00;99.90
12957;DHT22;6543;48.836;10.092;2023-08-21T09:02:54;27.90;99.90
12957;DHT22;6543;48.836;10.092;2023-08-21T09:05:22;27.80;99.90
12957;DHT22;6543;48.836;10.092;2023-08-21T09:08:02;28.00;99.90
12957;DHT22;6543;48.836;10.092;2023-08-21T09:10:29;28.30;99.90
12957;DHT22;6543;48.836;10.092;2023-08-21T09:12:57;28.00;99.90
12957;DHT22;6543;48.836;10.092;2023-08-21T09:15:28;28.30;99.90
12957;DHT22;6543;48.836;10.092;2023-08-21T09:17:56;28.40;99.90
12957;DHT22;6543;48.836;10.092;2023-08-21T09:20:23;28.10;99.90
12957;DHT22;6543;48.836;10.092;2023-08-21T09:22:53;28.30;99.90
12957;DHT22;6543;48.836;10.092;2023-08-21T09:25:26;28.40;99.90
12957;DHT22;6543;48.836;10.092;2023-08-21T09:27:53;28.60;99.90
12957;DHT22;6543;48.836;10.092;2023-08-21T09:30:20;28.40;99.90
12957;DHT22;6543;48.836;10.092;2023-08-21T09:32:55;28.40;99.90
12957;DHT22;6543;48.836;10.092;2023-08-21T09:35:22;28.80;99.90
12957;DHT22;6543;48.836;10.092;2023-08-21T09:37:49;28.90;99.90
12957;DHT22;6543;48.836;10.092;2023-08-21T09:40:18;29.00;99.90
12957;DHT22;6543;48.836;10.092;2023-08-21T09:42:51;29.10;99.90
12957;DHT22;6543;48.836;10.092;2023-08-21T09:45:20;29.00;99.90
12957;DHT22;6543;48.836;10.092;2023-08-21T09:47:47;29.10;99.90
12957;DHT22;6543;48.836;10.092;2023-08-21T09:50:15;28.90;99.90
12957;DHT22;6543;48.836;10.092;2023-08-21T09:52:43;28.90;99.90
12957;DHT22;6543;48.836;10.092;2023-08-21T09:55:12;29.00;99.90
12957;DHT22;6543;48.836;10.092;2023-08-21T09:57:40;29.00;99.90
12957;DHT22;6543;48.836;10.092;2023-08-21T10:00:10;29.10;99.90
12957;DHT22;6543;48.836;10.092;2023-08-21T10:02:42;28.90;99.90
12957;DHT22;6543;48.836;10.092;2023-08-21T10:05:11;29.20;99.90
12957;DHT22;6543;48.836;10.092;2023-08-21T10:07:40;29.30;99.90
12957;DHT22;6543;48.836;10.092;2023-08-21T10:10:08;29.50;99.90
12957;DHT22;6543;48.836;10.092;2023-08-21T10:12:35;29.30;99.90
12957;DHT22;6543;48.836;10.092;2023-08-21T10:15:03;29.40;99.90
12957;DHT22;6543;48.836;10.092;2023-08-21T10:17:32;29.10;99.90
12957;DHT22;6543;48.836;10.092;2023-08-21T10:20:03;29.30;99.90
12957;DHT22;6543;48.836;10.092;2023-08-21T10:22:41;29.40;99.90
12957;DHT22;6543;48.836;10.092;2023-08-21T10:25:15;29.80;99.90
12957;DHT22;6543;48.836;10.092;2023-08-21T10:27:43;29.70;99.90
12957;DHT22;6543;48.836;10.092;2023-08-21T10:30:14;29.70;99.90
12957;DHT22;6543;48.836;10.092;2023-08-21T10:32:46;29.50;99.90
12957;DHT22;6543;48.836;10.092;2023-08-21T10:35:19;29.60;99.90
12957;DHT22;6543;48.836;10.092;2023-08-21T10:38:05;29.80;99.90
12957;DHT22;6543;48.836;10.092;2023-08-21T10:40:33;29.50;99.90
12957;DHT22;6543;48.836;10.092;2023-08-21T10:43:00;29.90;99.90
12957;DHT22;6543;48.836;10.092;2023-08-21T10:45:28;30.00;99.90
12957;DHT22;6543;48.836;10.092;2023-08-21T10:47:57;30.00;99.90
12957;DHT22;6543;48.836;10.092;2023-08-21T10:50:24;30.10;99.90
12957;DHT22;6543;48.836;10.092;2023-08-21T10:52:52;30.60;99.90
12957;DHT22;6543;48.836;10.092;2023-08-21T10:55:20;30.40;99.90
12957;DHT22;6543;48.836;10.092;2023-08-21T10:57:48;30.70;99.90
12957;DHT22;6543;48.836;10.092;2023-08-21T11:00:18;30.50;99.90
12957;DHT22;6543;48.836;10.092;2023-08-21T11:02:47;30.10;99.90
12957;DHT22;6543;48.836;10.092;2023-08-21T11:05:16;30.30;99.90
12957;DHT22;6543;48.836;10.092;2023-08-21T11:07:44;30.40;99.90
12957;DHT22;6543;48.836;10.092;2023-08-21T11:10:12;30.60;99.90
12957;DHT22;6543;48.836;10.092;2023-08-21T11:12:49;30.40;99.90
12957;DHT22;6543;48.836;10.092;2023-08-21T11:15:16;30.40;99.90
12957;DHT22;6543;48.836;10.092;2023-08-21T11:17:51;30.70;99.90
12957;DHT22;6543;48.836;10.092;2023-08-21T11:20:20;30.50;99.90
12957;DHT22;6543;48.836;10.092;2023-08-21T11:22:48;30.50;99.90
12957;DHT22;6543;48.836;10.092;2023-08-21T11:25:17;30.80;99.90
12957;DHT22;6543;48.836;10.092;2023-08-21T11:27:45;30.70;99.90
12957;DHT22;6543;48.836;10.092;2023-08-21T11:30:12;30.70;99.90
12957;DHT22;6543;48.836;10.092;2023-08-21T11:32:40;30.80;99.90
12957;DHT22;6543;48.836;10.092;2023-08-21T11:35:07;30.90;99.90
12957;DHT22;6543;48.836;10.092;2023-08-21T11:37:43;30.80;99.90
12957;DHT22;6543;48.836;10.092;2023-08-21T11:40:11;30.60;99.90
12957;DHT22;6543;48.836;10.092;2023-08-21T11:42:39;30.40;99.90
12957;DHT22;6543;48.836;10.092;2023-08-21T11:45:07;30.50;99.90
12957;DHT22;6543;48.836;10.092;2023-08-21T11:47:36;30.70;99.90
12957;DHT22;6543;48.836;10.092;2023-08-21T11:50:04;31.20;99.90
12957;DHT22;6543;48.836;10.092;2023-08-21T11:52:33;31.20;99.90
12957;DHT22;6543;48.836;10.092;2023-08-21T11:55:08;30.80;99.90
12957;DHT22;6543;48.836;10.092;2023-08-21T11:57:46;30.90;99.90
12957;DHT22;6543;48.836;10.092;2023-08-21T12:00:14;31.30;99.90
12957;DHT22;6543;48.836;10.092;2023-08-21T12:02:53;31.40;99.90
12957;DHT22;6543;48.836;10.092;2023-08-21T12:05:20;31.30;99.90
12957;DHT22;6543;48.836;10.092;2023-08-21T12:07:47;31.30;99.90
12957;DHT22;6543;48.836;10.092;2023-08-21T12:10:22;31.30;99.90
12957;DHT22;6543;48.836;10.092;2023-08-21T12:12:49;31.20;99.90
12957;DHT22;6543;48.836;10.092;2023-08-21T12:15:16;31.10;99.90
12957;DHT22;6543;48.836;10.092;2023-08-21T12:17:43;31.30;99.90
12957;DHT22;6543;48.836;10.092;2023-08-21T12:20:10;31.50;99.90
12957;DHT22;6543;48.836;10.092;2023-08-21T12:22:37;31.50;99.90
12957;DHT22;6543;48.836;10.092;2023-08-21T12:25:05;31.30;99.90
12957;DHT22;6543;48.836;10.092;2023-08-21T12:27:34;31.60;99.90
12957;DHT22;6543;48.836;10.092;2023-08-21T12:30:01;31.50;99.90
12957;DHT22;6543;48.836;10.092;2023-08-21T12:32:28;31.40;99.90
12957;DHT22;6543;48.836;10.092;2023-08-21T12:34:54;31.60;99.90
12957;DHT22;6543;48.836;10.092;2023-08-21T12:37:21;31.60;99.90
12957;DHT22;6543;48.836;10.092;2023-08-21T12:39:48;31.50;99.90
12957;DHT22;6543;48.836;10.092;2023-08-21T12:42:16;31.10;99.90
12957;DHT22;6543;48.836;10.092;2023-08-21T12:44:44;31.00;99.90
12957;DHT22;6543;48.836;10.092;2023-08-21T12:47:11;31.30;99.90
12957;DHT22;6543;48.836;10.092;2023-08-21T12:49:38;31.80;99.90
12957;DHT22;6543;48.836;10.092;2023-08-21T12:52:05;31.40;99.90
12957;DHT22;6543;48.836;10.092;2023-08-21T12:54:32;31.20;99.90
12957;DHT22;6543;48.836;10.092;2023-08-21T12:56:59;31.50;99.90
12957;DHT22;6543;48.836;10.092;2023-08-21T12:59:26;31.20;99.90
12957;DHT22;6543;48.836;10.092;2023-08-21T13:01:54;31.10;99.90
12957;DHT22;6543;48.836;10.092;2023-08-21T13:04:21;31.40;99.90
12957;DHT22;6543;48.836;10.092;2023-08-21T13:06:48;31.60;99.90
12957;DHT22;6543;48.836;10.092;2023-08-21T13:09:14;31.90;99.90
12957;DHT22;6543;48.836;10.092;2023-08-21T13:11:41;31.80;99.90
12957;DHT22;6543;48.836;10.092;2023-08-21T13:14:08;31.60;99.90
12957;DHT22;6543;48.836;10.092;2023-08-21T13:16:35;31.80;99.90
12957;DHT22;6543;48.836;10.092;2023-08-21T13:19:03;31.90;99.90
12957;DHT22;6543;48.836;10.092;2023-08-21T13:21:30;31.70;99.90
12957;DHT22;6543;48.836;10.092;2023-08-21T13:23:57;32.20;99.90
12957;DHT22;6543;48.836;10.092;2023-08-21T13:26:24;32.10;99.90
12957;DHT22;6543;48.836;10.092;2023-08-21T13:28:55;32.40;99.90
12957;DHT22;6543;48.836;10.092;2023-08-21T13:31:22;31.90;99.90
12957;DHT22;6543;48.836;10.092;2023-08-21T13:33:50;31.80;99.90
12957;DHT22;6543;48.836;10.092;2023-08-21T13:36:20;32.10;99.90
12957;DHT22;6543;48.836;10.092;2023-08-21T13:38:47;32.30;99.90
12957;DHT22;6543;48.836;10.092;2023-08-21T13:41:14;32.10;99.90
12957;DHT22;6543;48.836;10.092;2023-08-21T13:43:41;31.90;99.90
12957;DHT22;6543;48.836;10.092;2023-08-21T13:46:07;31.70;99.90
12957;DHT22;6543;48.836;10.092;2023-08-21T13:48:34;31.60;99.90
12957;DHT22;6543;48.836;10.092;2023-08-21T13:51:01;32.00;99.90
12957;DHT22;6543;48.836;10.092;2023-08-21T13:53:29;32.00;99.90
12957;DHT22;6543;48.836;10.092;2023-08-21T13:55:56;32.10;99.90
12957;DHT22;6543;48.836;10.092;2023-08-21T13:58:23;31.70;99.90
12957;DHT22;6543;48.836;10.092;2023-08-21T14:00:50;31.60;99.90
12957;DHT22;6543;48.836;10.092;2023-08-21T14:03:17;31.60;99.90
12957;DHT22;6543;48.836;10.092;2023-08-21T14:05:43;31.60;99.90
12957;DHT22;6543;48.836;10.092;2023-08-21T14:08:10;31.50;99.90
12957;DHT22;6543;48.836;10.092;2023-08-21T14:10:39;31.70;99.90
12957;DHT22;6543;48.836;10.092;2023-08-21T14:13:06;31.80;99.90
12957;DHT22;6543;48.836;10.092;2023-08-21T14:15:33;31.90;99.90
12957;DHT22;6543;48.836;10.092;2023-08-21T14:18:00;31.90;99.90
12957;DHT22;6543;48.836;10.092;2023-08-21T14:20:28;31.60;99.90
12957;DHT22;6543;48.836;10.092;2023-08-21T14:22:54;31.50;99.90
12957;DHT22;6543;48.836;10.092;2023-08-21T14:25:21;31.40;99.90
12957;DHT22;6543;48.836;10.092;2023-08-21T14:27:50;31.50;99.90
12957;DHT22;6543;48.836;10.092;2023-08-21T14:30:17;31.80;99.90
12957;DHT22;6543;48.836;10.092;2023-08-21T14:32:43;32.20;99.90
12957;DHT22;6543;48.836;10.092;2023-08-21T14:35:10;32.00;99.90
12957;DHT22;6543;48.836;10.092;2023-08-21T14:37:37;31.90;99.90
12957;DHT22;6543;48.836;10.092;2023-08-21T14:40:06;31.60;99.90
12957;DHT22;6543;48.836;10.092;2023-08-21T14:42:35;31.60;99.90
12957;DHT22;6543;48.836;10.092;2023-08-21T14:45:04;31.50;99.90
12957;DHT22;6543;48.836;10.092;2023-08-21T14:47:31;31.40;99.90
12957;DHT22;6543;48.836;10.092;2023-08-21T14:49:58;31.30;99.90
12957;DHT22;6543;48.836;10.092;2023-08-21T14:52:25;31.50;99.90
12957;DHT22;6543;48.836;10.092;2023-08-21T14:54:52;31.30;99.90
12957;DHT22;6543;48.836;10.092;2023-08-21T14:57:19;30.70;99.90
12957;DHT22;6543;48.836;10.092;2023-08-21T14:59:46;31.60;99.90
12957;DHT22;6543;48.836;10.092;2023-08-21T15:02:14;31.60;99.90
12957;DHT22;6543;48.836;10.092;2023-08-21T15:04:42;31.50;99.90
12957;DHT22;6543;48.836;10.092;2023-08-21T15:07:09;31.50;99.90
12957;DHT22;6543;48.836;10.092;2023-08-21T15:09:35;31.50;99.90
12957;DHT22;6543;48.836;10.092;2023-08-21T15:12:03;31.30;99.90
12957;DHT22;6543;48.836;10.092;2023-08-21T15:14:30;31.40;99.90
12957;DHT22;6543;48.836;10.092;2023-08-21T15:16:57;31.30;99.90
12957;DHT22;6543;48.836;10.092;2023-08-21T15:19:25;31.20;99.90
12957;DHT22;6543;48.836;10.092;2023-08-21T15:21:52;32.10;99.90
12957;DHT22;6543;48.836;10.092;2023-08-21T15:24:18;32.60;99.90
12957;DHT22;6543;48.836;10.092;2023-08-21T15:26:45;33.10;99.90
12957;DHT22;6543;48.836;10.092;2023-08-21T15:29:12;33.30;99.90
12957;DHT22;6543;48.836;10.092;2023-08-21T15:31:39;33.20;99.90
12957;DHT22;6543;48.836;10.092;2023-08-21T15:34:06;32.40;99.90
12957;DHT22;6543;48.836;10.092;2023-08-21T15:36:34;32.30;99.90